sensor_id;sensor_type;location;lat;lon;timestamp;P1;durP1;ratioP1;P2;durP2;ratioP2
13122;SDS011;6627;50.920;12.050;2022-07-17T00:00:27;6.10;;;2.53;;
13122;SDS011;6627;50.920;12.050;2022-07-17T00:02:54;5.97;;;2.30;;
13122;SDS011;6627;50.920;12.050;2022-07-17T00:05:21;4.50;;;2.70;;
13122;SDS011;6627;50.920;12.050;2022-07-17T00:07:48;9.90;;;3.00;;
13122;SDS011;6627;50.920;12.050;2022-07-17T00:10:15;6.93;;;3.10;;
13122;SDS011;6627;50.920;12.050;2022-07-17T00:12:43;5.23;;;2.90;;
13122;SDS011;6627;50.920;12.050;2022-07-17T00:15:11;6.23;;;3.13;;
13122;SDS011;6627;50.920;12.050;2022-07-17T00:17:40;8.13;;;2.93;;
13122;SDS011;6627;50.920;12.050;2022-07-17T00:20:07;7.47;;;3.13;;
13122;SDS011;6627;50.920;12.050;2022-07-17T00:22:36;4.83;;;2.60;;
13122;SDS011;6627;50.920;12.050;2022-07-17T00:25:03;7.57;;;2.53;;
13122;SDS011;6627;50.920;12.050;2022-07-17T00:27:32;7.73;;;2.37;;
13122;SDS011;6627;50.920;12.050;2022-07-17T00:29:59;4.40;;;2.60;;
13122;SDS011;6627;50.920;12.050;2022-07-17T00:32:26;3.80;;;2.17;;
13122;SDS011;6627;50.920;12.050;2022-07-17T00:34:56;6.53;;;2.27;;
13122;SDS011;6627;50.920;12.050;2022-07-17T00:37:23;5.73;;;2.57;;
13122;SDS011;6627;50.920;12.050;2022-07-17T00:39:51;3.53;;;2.10;;
13122;SDS011;6627;50.920;12.050;2022-07-17T00:42:18;5.80;;;1.80;;
13122;SDS011;6627;50.920;12.050;2022-07-17T00:44:45;6.23;;;1.87;;
13122;SDS011;6627;50.920;12.050;2022-07-17T00:47:12;5.77;;;2.03;;
13122;SDS011;6627;50.920;12.050;2022-07-17T00:49:42;4.30;;;2.10;;
13122;SDS011;6627;50.920;12.050;2022-07-17T00:52:11;11.23;;;2.50;;
13122;SDS011;6627;50.920;12.050;2022-07-17T00:54:41;6.83;;;2.20;;
13122;SDS011;6627;50.920;12.050;2022-07-17T00:57:12;5.80;;;2.33;;
13122;SDS011;6627;50.920;12.050;2022-07-17T00:59:41;5.13;;;2.10;;
13122;SDS011;6627;50.920;12.050;2022-07-17T01:02:10;3.43;;;1.80;;
13122;SDS011;6627;50.920;12.050;2022-07-17T01:04:40;5.93;;;2.13;;
13122;SDS011;6627;50.920;12.050;2022-07-17T01:07:07;5.63;;;2.13;;
13122;SDS011;6627;50.920;12.050;2022-07-17T01:09:36;6.33;;;2.40;;
13122;SDS011;6627;50.920;12.050;2022-07-17T01:12:05;6.07;;;2.30;;
13122;SDS011;6627;50.920;12.050;2022-07-17T01:14:34;4.23;;;2.33;;
13122;SDS011;6627;50.920;12.050;2022-07-17T01:17:02;6.30;;;2.30;;
13122;SDS011;6627;50.920;12.050;2022-07-17T01:19:29;7.03;;;2.53;;
13122;SDS011;6627;50.920;12.050;2022-07-17T01:21:58;5.63;;;2.50;;
13122;SDS011;6627;50.920;12.050;2022-07-17T01:24:25;4.70;;;2.30;;
13122;SDS011;6627;50.920;12.050;2022-07-17T01:26:52;4.90;;;2.20;;
13122;SDS011;6627;50.920;12.050;2022-07-17T01:29:19;5.30;;;2.50;;
13122;SDS011;6627;50.920;12.050;2022-07-17T01:31:46;5.33;;;2.40;;
13122;SDS011;6627;50.920;12.050;2022-07-17T01:34:14;4.57;;;2.37;;
13122;SDS011;6627;50.920;12.050;2022-07-17T01:36:41;7.07;;;2.23;;
13122;SDS011;6627;50.920;12.050;2022-07-17T01:39:10;8.00;;;2.30;;
13122;SDS011;6627;50.920;12.050;2022-07-17T01:41:37;6.73;;;2.90;;
13122;SDS011;6627;50.920;12.050;2022-07-17T01:44:05;7.07;;;2.47;;
13122;SDS011;6627;50.920;12.050;2022-07-17T01:46:34;4.13;;;2.27;;
13122;SDS011;6627;50.920;12.050;2022-07-17T01:49:01;5.20;;;2.30;;
13122;SDS011;6627;50.920;12.050;2022-07-17T01:51:28;9.70;;;2.83;;
13122;SDS011;6627;50.920;12.050;2022-07-17T01:53:55;5.77;;;2.80;;
13122;SDS011;6627;50.920;12.050;2022-07-17T01:56:24;5.83;;;2.83;;
13122;SDS011;6627;50.920;12.050;2022-07-17T01:58:51;4.23;;;2.10;;
13122;SDS011;6627;50.920;12.050;2022-07-17T02:01:18;5.87;;;2.50;;
13122;SDS011;6627;50.920;12.050;2022-07-17T02:03:46;4.20;;;2.20;;
13122;SDS011;6627;50.920;12.050;2022-07-17T02:06:13;5.57;;;2.17;;
13122;SDS011;6627;50.920;12.050;2022-07-17T02:08:40;7.33;;;2.63;;
13122;SDS011;6627;50.920;12.050;2022-07-17T02:11:07;4.00;;;2.47;;
13122;SDS011;6627;50.920;12.050;2022-07-17T02:13:35;4.73;;;2.30;;
13122;SDS011;6627;50.920;12.050;2022-07-17T02:16:02;3.53;;;2.10;;
13122;SDS011;6627;50.920;12.050;2022-07-17T02:18:30;3.50;;;2.10;;
13122;SDS011;6627;50.920;12.050;2022-07-17T02:20:58;8.33;;;2.10;;
13122;SDS011;6627;50.920;12.050;2022-07-17T02:23:25;6.07;;;2.00;;
13122;SDS011;6627;50.920;12.050;2022-07-17T02:25:53;4.13;;;1.80;;
13122;SDS011;6627;50.920;12.050;2022-07-17T02:28:21;3.90;;;2.00;;
13122;SDS011;6627;50.920;12.050;2022-07-17T02:30:49;5.63;;;2.00;;
13122;SDS011;6627;50.920;12.050;2022-07-17T02:33:16;5.77;;;2.23;;
13122;SDS011;6627;50.920;12.050;2022-07-17T02:35:43;3.40;;;1.90;;
13122;SDS011;6627;50.920;12.050;2022-07-17T02:38:11;4.33;;;2.03;;
13122;SDS011;6627;50.920;12.050;2022-07-17T02:40:38;4.97;;;2.20;;
13122;SDS011;6627;50.920;12.050;2022-07-17T02:43:07;7.23;;;2.27;;
13122;SDS011;6627;50.920;12.050;2022-07-17T02:45:34;5.63;;;2.23;;
13122;SDS011;6627;50.920;12.050;2022-07-17T02:48:03;3.63;;;2.00;;
13122;SDS011;6627;50.920;12.050;2022-07-17T02:50:31;5.47;;;2.50;;
13122;SDS011;6627;50.920;12.050;2022-07-17T02:52:58;5.37;;;2.20;;
13122;SDS011;6627;50.920;12.050;2022-07-17T02:55:25;6.23;;;2.60;;
13122;SDS011;6627;50.920;12.050;2022-07-17T02:57:52;4.60;;;2.37;;
13122;SDS011;6627;50.920;12.050;2022-07-17T03:00:20;4.90;;;2.33;;
13122;SDS011;6627;50.920;12.050;2022-07-17T03:02:47;7.90;;;2.67;;
13122;SDS011;6627;50.920;12.050;2022-07-17T03:05:16;4.83;;;2.30;;
13122;SDS011;6627;50.920;12.050;2022-07-17T03:07:43;4.53;;;2.50;;
13122;SDS011;6627;50.920;12.050;2022-07-17T03:10:11;6.17;;;2.53;;
13122;SDS011;6627;50.920;12.050;2022-07-17T03:12:39;2.60;;;2.20;;
13122;SDS011;6627;50.920;12.050;2022-07-17T03:15:07;5.77;;;2.40;;
13122;SDS011;6627;50.920;12.050;2022-07-17T03:17:37;7.10;;;2.57;;
13122;SDS011;6627;50.920;12.050;2022-07-17T03:20:06;5.87;;;2.70;;
13122;SDS011;6627;50.920;12.050;2022-07-17T03:22:36;6.63;;;2.77;;
13122;SDS011;6627;50.920;12.050;2022-07-17T03:25:04;7.57;;;2.60;;
13122;SDS011;6627;50.920;12.050;2022-07-17T03:27:32;6.53;;;2.67;;
13122;SDS011;6627;50.920;12.050;2022-07-17T03:29:59;8.23;;;2.60;;
13122;SDS011;6627;50.920;12.050;2022-07-17T03:32:27;5.73;;;2.40;;
13122;SDS011;6627;50.920;12.050;2022-07-17T03:34:54;4.07;;;2.40;;
13122;SDS011;6627;50.920;12.050;2022-07-17T03:37:21;3.50;;;2.20;;
13122;SDS011;6627;50.920;12.050;2022-07-17T03:39:50;4.40;;;2.33;;
13122;SDS011;6627;50.920;12.050;2022-07-17T03:42:17;7.00;;;2.47;;
13122;SDS011;6627;50.920;12.050;2022-07-17T03:44:44;5.63;;;2.70;;
13122;SDS011;6627;50.920;12.050;2022-07-17T03:47:11;4.40;;;2.20;;
13122;SDS011;6627;50.920;12.050;2022-07-17T03:49:39;4.40;;;2.50;;
13122;SDS011;6627;50.920;12.050;2022-07-17T03:52:06;8.20;;;2.20;;
13122;SDS011;6627;50.920;12.050;2022-07-17T03:54:33;5.70;;;2.20;;
13122;SDS011;6627;50.920;12.050;2022-07-17T03:57:01;6.60;;;2.40;;
13122;SDS011;6627;50.920;12.050;2022-07-17T03:59:29;4.43;;;2.33;;
13122;SDS011;6627;50.920;12.050;2022-07-17T04:01:56;5.13;;;2.30;;
13122;SDS011;6627;50.920;12.050;2022-07-17T04:04:23;6.80;;;2.43;;
13122;SDS011;6627;50.920;12.050;2022-07-17T04:06:50;6.67;;;2.47;;
13122;SDS011;6627;50.920;12.050;2022-07-17T04:09:17;3.97;;;2.33;;
13122;SDS011;6627;50.920;12.050;2022-07-17T04:11:44;5.10;;;2.60;;
13122;SDS011;6627;50.920;12.050;2022-07-17T04:14:12;5.77;;;2.57;;
13122;SDS011;6627;50.920;12.050;2022-07-17T04:16:40;4.30;;;2.70;;
13122;SDS011;6627;50.920;12.050;2022-07-17T04:19:07;9.73;;;3.33;;
13122;SDS011;6627;50.920;12.050;2022-07-17T04:21:34;6.70;;;2.90;;
13122;SDS011;6627;50.920;12.050;2022-07-17T04:24:02;5.17;;;2.57;;
13122;SDS011;6627;50.920;12.050;2022-07-17T04:26:30;3.47;;;2.43;;
13122;SDS011;6627;50.920;12.050;2022-07-17T04:28:57;5.67;;;2.60;;
13122;SDS011;6627;50.920;12.050;2022-07-17T04:31:25;4.07;;;2.10;;
13122;SDS011;6627;50.920;12.050;2022-07-17T04:33:52;4.60;;;2.47;;
13122;SDS011;6627;50.920;12.050;2022-07-17T04:36:19;8.33;;;2.20;;
13122;SDS011;6627;50.920;12.050;2022-07-17T04:38:46;5.70;;;2.33;;
13122;SDS011;6627;50.920;12.050;2022-07-17T04:41:14;5.57;;;2.47;;
13122;SDS011;6627;50.920;12.050;2022-07-17T04:43:41;7.60;;;2.73;;
13122;SDS011;6627;50.920;12.050;2022-07-17T04:46:08;3.83;;;2.10;;
13122;SDS011;6627;50.920;12.050;2022-07-17T04:48:36;4.37;;;2.40;;
13122;SDS011;6627;50.920;12.050;2022-07-17T04:51:03;4.93;;;2.53;;
13122;SDS011;6627;50.920;12.050;2022-07-17T04:53:30;6.23;;;2.67;;
13122;SDS011;6627;50.920;12.050;2022-07-17T04:55:59;7.77;;;2.63;;
13122;SDS011;6627;50.920;12.050;2022-07-17T04:58:26;5.37;;;2.80;;
13122;SDS011;6627;50.920;12.050;2022-07-17T05:00:53;4.93;;;2.77;;
13122;SDS011;6627;50.920;12.050;2022-07-17T05:03:20;6.60;;;2.80;;
13122;SDS011;6627;50.920;12.050;2022-07-17T05:05:48;6.63;;;3.10;;
13122;SDS011;6627;50.920;12.050;2022-07-17T05:08:15;4.27;;;3.00;;
13122;SDS011;6627;50.920;12.050;2022-07-17T05:10:44;8.20;;;3.00;;
13122;SDS011;6627;50.920;12.050;2022-07-17T05:13:11;6.50;;;3.17;;
13122;SDS011;6627;50.920;12.050;2022-07-17T05:15:38;8.03;;;2.97;;
13122;SDS011;6627;50.920;12.050;2022-07-17T05:18:05;6.90;;;2.70;;
13122;SDS011;6627;50.920;12.050;2022-07-17T05:20:33;5.20;;;2.80;;
13122;SDS011;6627;50.920;12.050;2022-07-17T05:23:02;7.67;;;2.90;;
13122;SDS011;6627;50.920;12.050;2022-07-17T05:25:29;5.83;;;3.20;;
13122;SDS011;6627;50.920;12.050;2022-07-17T05:27:56;7.50;;;3.33;;
13122;SDS011;6627;50.920;12.050;2022-07-17T05:30:23;8.53;;;3.23;;
13122;SDS011;6627;50.920;12.050;2022-07-17T05:32:51;5.20;;;2.70;;
13122;SDS011;6627;50.920;12.050;2022-07-17T05:35:18;6.33;;;2.97;;
13122;SDS011;6627;50.920;12.050;2022-07-17T05:37:45;7.37;;;2.80;;
13122;SDS011;6627;50.920;12.050;2022-07-17T05:40:14;4.37;;;2.67;;
13122;SDS011;6627;50.920;12.050;2022-07-17T05:42:41;8.23;;;3.13;;
13122;SDS011;6627;50.920;12.050;2022-07-17T05:45:08;6.27;;;2.60;;
13122;SDS011;6627;50.920;12.050;2022-07-17T05:47:35;8.83;;;2.83;;
13122;SDS011;6627;50.920;12.050;2022-07-17T05:50:03;8.27;;;2.90;;
13122;SDS011;6627;50.920;12.050;2022-07-17T05:52:31;6.23;;;3.03;;
13122;SDS011;6627;50.920;12.050;2022-07-17T05:54:58;6.13;;;2.90;;
13122;SDS011;6627;50.920;12.050;2022-07-17T05:57:26;4.90;;;2.30;;
13122;SDS011;6627;50.920;12.050;2022-07-17T05:59:53;6.43;;;2.37;;
13122;SDS011;6627;50.920;12.050;2022-07-17T06:02:20;4.97;;;2.23;;
13122;SDS011;6627;50.920;12.050;2022-07-17T06:04:48;4.97;;;2.30;;
13122;SDS011;6627;50.920;12.050;2022-07-17T06:07:15;4.80;;;2.27;;
13122;SDS011;6627;50.920;12.050;2022-07-17T06:09:42;5.53;;;2.23;;
13122;SDS011;6627;50.920;12.050;2022-07-17T06:12:09;6.53;;;2.30;;
13122;SDS011;6627;50.920;12.050;2022-07-17T06:14:37;5.27;;;2.10;;
13122;SDS011;6627;50.920;12.050;2022-07-17T06:17:04;6.83;;;2.63;;
13122;SDS011;6627;50.920;12.050;2022-07-17T06:19:32;6.57;;;2.20;;
13122;SDS011;6627;50.920;12.050;2022-07-17T06:21:59;7.37;;;2.40;;
13122;SDS011;6627;50.920;12.050;2022-07-17T06:24:26;4.47;;;2.30;;
13122;SDS011;6627;50.920;12.050;2022-07-17T06:26:53;4.50;;;2.00;;
13122;SDS011;6627;50.920;12.050;2022-07-17T06:29:20;5.60;;;1.80;;
13122;SDS011;6627;50.920;12.050;2022-07-17T06:31:49;5.00;;;1.97;;
13122;SDS011;6627;50.920;12.050;2022-07-17T06:34:16;9.70;;;2.47;;
13122;SDS011;6627;50.920;12.050;2022-07-17T06:36:44;4.53;;;1.67;;
13122;SDS011;6627;50.920;12.050;2022-07-17T06:39:11;7.57;;;1.90;;
13122;SDS011;6627;50.920;12.050;2022-07-17T06:41:39;6.30;;;1.77;;
13122;SDS011;6627;50.920;12.050;2022-07-17T06:44:06;4.93;;;1.70;;
13122;SDS011;6627;50.920;12.050;2022-07-17T06:46:33;4.40;;;1.77;;
13122;SDS011;6627;50.920;12.050;2022-07-17T06:49:01;11.20;;;2.37;;
13122;SDS011;6627;50.920;12.050;2022-07-17T06:51:29;6.90;;;1.93;;
13122;SDS011;6627;50.920;12.050;2022-07-17T06:53:56;6.20;;;1.80;;
13122;SDS011;6627;50.920;12.050;2022-07-17T06:56:23;5.07;;;1.80;;
13122;SDS011;6627;50.920;12.050;2022-07-17T06:58:50;5.83;;;1.80;;
13122;SDS011;6627;50.920;12.050;2022-07-17T07:01:18;8.40;;;1.83;;
13122;SDS011;6627;50.920;12.050;2022-07-17T07:03:45;3.60;;;1.70;;
13122;SDS011;6627;50.920;12.050;2022-07-17T07:06:14;4.47;;;1.70;;
13122;SDS011;6627;50.920;12.050;2022-07-17T07:08:42;3.77;;;1.50;;
13122;SDS011;6627;50.920;12.050;2022-07-17T07:11:09;3.53;;;1.77;;
13122;SDS011;6627;50.920;12.050;2022-07-17T07:13:36;5.70;;;1.60;;
13122;SDS011;6627;50.920;12.050;2022-07-17T07:16:03;5.07;;;1.70;;
13122;SDS011;6627;50.920;12.050;2022-07-17T07:18:31;7.97;;;1.80;;
13122;SDS011;6627;50.920;12.050;2022-07-17T07:20:59;6.90;;;1.73;;
13122;SDS011;6627;50.920;12.050;2022-07-17T07:23:28;6.53;;;1.90;;
13122;SDS011;6627;50.920;12.050;2022-07-17T07:25:55;10.67;;;2.00;;
13122;SDS011;6627;50.920;12.050;2022-07-17T07:28:24;5.97;;;1.77;;
13122;SDS011;6627;50.920;12.050;2022-07-17T07:30:51;5.63;;;1.73;;
13122;SDS011;6627;50.920;12.050;2022-07-17T07:33:18;4.80;;;1.80;;
13122;SDS011;6627;50.920;12.050;2022-07-17T07:35:46;4.77;;;1.60;;
13122;SDS011;6627;50.920;12.050;2022-07-17T07:38:13;5.67;;;1.60;;
13122;SDS011;6627;50.920;12.050;2022-07-17T07:40:41;6.67;;;1.60;;
13122;SDS011;6627;50.920;12.050;2022-07-17T07:43:08;4.17;;;1.77;;
13122;SDS011;6627;50.920;12.050;2022-07-17T07:45:35;5.23;;;1.50;;
13122;SDS011;6627;50.920;12.050;2022-07-17T07:48:03;5.97;;;1.73;;
13122;SDS011;6627;50.920;12.050;2022-07-17T07:50:31;4.73;;;1.70;;
13122;SDS011;6627;50.920;12.050;2022-07-17T07:52:58;3.00;;;1.57;;
13122;SDS011;6627;50.920;12.050;2022-07-17T07:55:25;6.77;;;1.70;;
13122;SDS011;6627;50.920;12.050;2022-07-17T07:58:02;3.97;;;1.43;;
13122;SDS011;6627;50.920;12.050;2022-07-17T08:00:31;6.47;;;1.57;;
13122;SDS011;6627;50.920;12.050;2022-07-17T08:02:58;6.73;;;1.53;;
13122;SDS011;6627;50.920;12.050;2022-07-17T08:05:26;4.30;;;1.40;;
13122;SDS011;6627;50.920;12.050;2022-07-17T08:07:53;4.67;;;1.33;;
13122;SDS011;6627;50.920;12.050;2022-07-17T08:10:20;7.10;;;1.90;;
13122;SDS011;6627;50.920;12.050;2022-07-17T08:12:47;5.43;;;1.60;;
13122;SDS011;6627;50.920;12.050;2022-07-17T08:15:17;4.20;;;1.60;;
13122;SDS011;6627;50.920;12.050;2022-07-17T08:17:46;3.23;;;1.43;;
13122;SDS011;6627;50.920;12.050;2022-07-17T08:20:17;5.70;;;1.60;;
13122;SDS011;6627;50.920;12.050;2022-07-17T08:22:46;8.87;;;2.10;;
13122;SDS011;6627;50.920;12.050;2022-07-17T08:25:16;5.90;;;1.67;;
13122;SDS011;6627;50.920;12.050;2022-07-17T08:27:43;5.83;;;2.00;;
13122;SDS011;6627;50.920;12.050;2022-07-17T08:30:11;5.97;;;1.80;;
13122;SDS011;6627;50.920;12.050;2022-07-17T08:32:42;5.30;;;1.47;;
13122;SDS011;6627;50.920;12.050;2022-07-17T08:35:09;4.20;;;1.50;;
13122;SDS011;6627;50.920;12.050;2022-07-17T08:37:42;3.97;;;1.63;;
13122;SDS011;6627;50.920;12.050;2022-07-17T08:40:18;5.83;;;1.57;;
13122;SDS011;6627;50.920;12.050;2022-07-17T08:42:47;4.13;;;1.80;;
13122;SDS011;6627;50.920;12.050;2022-07-17T08:45:16;5.10;;;1.60;;
13122;SDS011;6627;50.920;12.050;2022-07-17T08:47:44;6.73;;;1.50;;
13122;SDS011;6627;50.920;12.050;2022-07-17T08:50:12;4.43;;;1.60;;
13122;SDS011;6627;50.920;12.050;2022-07-17T08:52:41;5.57;;;1.70;;
13122;SDS011;6627;50.920;12.050;2022-07-17T08:55:09;3.73;;;1.40;;
13122;SDS011;6627;50.920;12.050;2022-07-17T08:57:39;3.40;;;1.47;;
13122;SDS011;6627;50.920;12.050;2022-07-17T09:00:09;5.60;;;1.50;;
13122;SDS011;6627;50.920;12.050;2022-07-17T09:02:39;6.67;;;1.83;;
13122;SDS011;6627;50.920;12.050;2022-07-17T09:05:08;5.03;;;1.60;;
13122;SDS011;6627;50.920;12.050;2022-07-17T09:07:44;3.27;;;1.47;;
13122;SDS011;6627;50.920;12.050;2022-07-17T09:10:12;6.30;;;1.43;;
13122;SDS011;6627;50.920;12.050;2022-07-17T09:12:40;4.73;;;1.80;;
13122;SDS011;6627;50.920;12.050;2022-07-17T09:15:14;4.10;;;1.53;;
13122;SDS011;6627;50.920;12.050;2022-07-17T09:17:50;7.23;;;1.90;;
13122;SDS011;6627;50.920;12.050;2022-07-17T09:20:20;4.50;;;1.50;;
13122;SDS011;6627;50.920;12.050;2022-07-17T09:22:55;5.73;;;1.53;;
13122;SDS011;6627;50.920;12.050;2022-07-17T09:25:37;5.80;;;1.70;;
13122;SDS011;6627;50.920;12.050;2022-07-17T09:28:06;3.00;;;1.37;;
13122;SDS011;6627;50.920;12.050;2022-07-17T09:30:38;5.53;;;1.80;;
13122;SDS011;6627;50.920;12.050;2022-07-17T09:33:07;4.50;;;1.33;;
13122;SDS011;6627;50.920;12.050;2022-07-17T09:35:48;4.80;;;1.80;;
13122;SDS011;6627;50.920;12.050;2022-07-17T09:38:27;5.33;;;1.70;;
13122;SDS011;6627;50.920;12.050;2022-07-17T09:41:01;4.97;;;1.63;;
13122;SDS011;6627;50.920;12.050;2022-07-17T09:43:37;4.27;;;1.80;;
13122;SDS011;6627;50.920;12.050;2022-07-17T09:46:08;4.37;;;1.60;;
13122;SDS011;6627;50.920;12.050;2022-07-17T09:48:35;3.37;;;1.40;;
13122;SDS011;6627;50.920;12.050;2022-07-17T09:51:15;2.93;;;1.50;;
13122;SDS011;6627;50.920;12.050;2022-07-17T09:53:45;5.43;;;1.73;;
13122;SDS011;6627;50.920;12.050;2022-07-17T09:56:15;3.50;;;1.53;;
13122;SDS011;6627;50.920;12.050;2022-07-17T09:58:47;3.43;;;1.30;;
13122;SDS011;6627;50.920;12.050;2022-07-17T10:01:16;3.87;;;1.40;;
13122;SDS011;6627;50.920;12.050;2022-07-17T10:03:45;4.57;;;1.67;;
13122;SDS011;6627;50.920;12.050;2022-07-17T10:06:15;4.03;;;1.50;;
13122;SDS011;6627;50.920;12.050;2022-07-17T10:08:42;5.40;;;1.40;;
13122;SDS011;6627;50.920;12.050;2022-07-17T10:11:09;6.23;;;1.73;;
13122;SDS011;6627;50.920;12.050;2022-07-17T10:13:39;3.67;;;1.50;;
13122;SDS011;6627;50.920;12.050;2022-07-17T10:16:09;7.43;;;1.50;;
13122;SDS011;6627;50.920;12.050;2022-07-17T10:18:39;5.90;;;1.30;;
13122;SDS011;6627;50.920;12.050;2022-07-17T10:21:12;4.67;;;1.50;;
13122;SDS011;6627;50.920;12.050;2022-07-17T10:23:47;8.37;;;1.67;;
13122;SDS011;6627;50.920;12.050;2022-07-17T10:26:33;4.73;;;1.50;;
13122;SDS011;6627;50.920;12.050;2022-07-17T10:29:06;4.77;;;1.70;;
13122;SDS011;6627;50.920;12.050;2022-07-17T10:31:35;4.50;;;1.50;;
13122;SDS011;6627;50.920;12.050;2022-07-17T10:34:03;4.27;;;1.50;;
13122;SDS011;6627;50.920;12.050;2022-07-17T10:36:37;4.47;;;1.50;;
13122;SDS011;6627;50.920;12.050;2022-07-17T10:39:10;4.27;;;1.53;;
13122;SDS011;6627;50.920;12.050;2022-07-17T10:41:39;3.10;;;1.20;;
13122;SDS011;6627;50.920;12.050;2022-07-17T10:44:07;4.47;;;1.60;;
13122;SDS011;6627;50.920;12.050;2022-07-17T10:46:35;4.03;;;1.53;;
13122;SDS011;6627;50.920;12.050;2022-07-17T10:49:02;5.23;;;1.43;;
13122;SDS011;6627;50.920;12.050;2022-07-17T10:51:30;3.90;;;1.33;;
13122;SDS011;6627;50.920;12.050;2022-07-17T10:54:00;4.07;;;1.30;;
13122;SDS011;6627;50.920;12.050;2022-07-17T10:56:27;3.73;;;1.30;;
13122;SDS011;6627;50.920;12.050;2022-07-17T10:59:02;3.13;;;1.20;;
13122;SDS011;6627;50.920;12.050;2022-07-17T11:01:29;2.93;;;1.37;;
13122;SDS011;6627;50.920;12.050;2022-07-17T11:03:58;4.03;;;1.50;;
13122;SDS011;6627;50.920;12.050;2022-07-17T11:06:27;7.47;;;1.97;;
13122;SDS011;6627;50.920;12.050;2022-07-17T11:08:58;2.80;;;1.57;;
13122;SDS011;6627;50.920;12.050;2022-07-17T11:11:35;5.13;;;1.47;;
13122;SDS011;6627;50.920;12.050;2022-07-17T11:14:09;3.70;;;1.57;;
13122;SDS011;6627;50.920;12.050;2022-07-17T11:16:46;2.27;;;1.30;;
13122;SDS011;6627;50.920;12.050;2022-07-17T11:19:21;2.23;;;1.00;;
13122;SDS011;6627;50.920;12.050;2022-07-17T11:21:51;2.60;;;1.20;;
13122;SDS011;6627;50.920;12.050;2022-07-17T11:24:20;4.40;;;1.50;;
13122;SDS011;6627;50.920;12.050;2022-07-17T11:26:49;3.63;;;1.40;;
13122;SDS011;6627;50.920;12.050;2022-07-17T11:29:17;8.33;;;1.60;;
13122;SDS011;6627;50.920;12.050;2022-07-17T11:31:45;3.50;;;1.30;;
13122;SDS011;6627;50.920;12.050;2022-07-17T11:34:12;3.07;;;1.40;;
13122;SDS011;6627;50.920;12.050;2022-07-17T11:36:40;3.30;;;1.47;;
13122;SDS011;6627;50.920;12.050;2022-07-17T11:39:11;2.60;;;1.30;;
13122;SDS011;6627;50.920;12.050;2022-07-17T11:41:43;3.57;;;1.40;;
13122;SDS011;6627;50.920;12.050;2022-07-17T11:44:18;3.07;;;1.23;;
13122;SDS011;6627;50.920;12.050;2022-07-17T11:46:48;3.13;;;1.30;;
13122;SDS011;6627;50.920;12.050;2022-07-17T11:49:22;4.03;;;1.17;;
13122;SDS011;6627;50.920;12.050;2022-07-17T11:51:51;2.67;;;1.53;;
13122;SDS011;6627;50.920;12.050;2022-07-17T11:54:22;2.73;;;1.30;;
13122;SDS011;6627;50.920;12.050;2022-07-17T11:56:52;4.53;;;1.27;;
13122;SDS011;6627;50.920;12.050;2022-07-17T11:59:24;4.03;;;1.30;;
13122;SDS011;6627;50.920;12.050;2022-07-17T12:01:54;3.73;;;1.30;;
13122;SDS011;6627;50.920;12.050;2022-07-17T12:04:22;2.97;;;1.20;;
13122;SDS011;6627;50.920;12.050;2022-07-17T12:06:57;4.10;;;1.20;;
13122;SDS011;6627;50.920;12.050;2022-07-17T12:09:27;2.27;;;1.37;;
13122;SDS011;6627;50.920;12.050;2022-07-17T12:11:56;2.63;;;1.20;;
13122;SDS011;6627;50.920;12.050;2022-07-17T12:14:23;3.83;;;1.40;;
13122;SDS011;6627;50.920;12.050;2022-07-17T12:16:50;2.77;;;1.40;;
13122;SDS011;6627;50.920;12.050;2022-07-17T12:19:18;5.10;;;1.47;;
13122;SDS011;6627;50.920;12.050;2022-07-17T12:21:54;4.00;;;1.30;;
13122;SDS011;6627;50.920;12.050;2022-07-17T12:24:26;4.00;;;1.30;;
13122;SDS011;6627;50.920;12.050;2022-07-17T12:26:58;7.10;;;1.33;;
13122;SDS011;6627;50.920;12.050;2022-07-17T12:29:28;3.27;;;1.40;;
13122;SDS011;6627;50.920;12.050;2022-07-17T12:32:05;2.60;;;1.17;;
13122;SDS011;6627;50.920;12.050;2022-07-17T12:34:36;6.20;;;1.30;;
13122;SDS011;6627;50.920;12.050;2022-07-17T12:37:10;2.77;;;1.30;;
13122;SDS011;6627;50.920;12.050;2022-07-17T12:39:37;3.07;;;1.40;;
13122;SDS011;6627;50.920;12.050;2022-07-17T12:42:06;8.87;;;1.50;;
13122;SDS011;6627;50.920;12.050;2022-07-17T12:44:34;4.27;;;1.37;;
13122;SDS011;6627;50.920;12.050;2022-07-17T12:47:02;3.43;;;1.40;;
13122;SDS011;6627;50.920;12.050;2022-07-17T12:49:30;3.97;;;1.40;;
13122;SDS011;6627;50.920;12.050;2022-07-17T12:51:58;3.00;;;1.10;;
13122;SDS011;6627;50.920;12.050;2022-07-17T12:54:25;3.53;;;1.40;;
13122;SDS011;6627;50.920;12.050;2022-07-17T12:56:52;1.77;;;1.10;;
13122;SDS011;6627;50.920;12.050;2022-07-17T12:59:21;3.03;;;1.37;;
13122;SDS011;6627;50.920;12.050;2022-07-17T13:01:49;2.23;;;1.20;;
13122;SDS011;6627;50.920;12.050;2022-07-17T13:04:17;4.67;;;1.30;;
13122;SDS011;6627;50.920;12.050;2022-07-17T13:06:46;2.80;;;1.30;;
13122;SDS011;6627;50.920;12.050;2022-07-17T13:09:13;2.73;;;1.23;;
13122;SDS011;6627;50.920;12.050;2022-07-17T13:11:41;2.57;;;1.30;;
13122;SDS011;6627;50.920;12.050;2022-07-17T13:14:09;2.80;;;1.20;;
13122;SDS011;6627;50.920;12.050;2022-07-17T13:16:38;2.73;;;1.10;;
13122;SDS011;6627;50.920;12.050;2022-07-17T13:19:06;2.00;;;1.17;;
13122;SDS011;6627;50.920;12.050;2022-07-17T13:21:33;3.50;;;1.40;;
13122;SDS011;6627;50.920;12.050;2022-07-17T13:24:01;4.33;;;1.50;;
13122;SDS011;6627;50.920;12.050;2022-07-17T13:26:29;5.10;;;1.37;;
13122;SDS011;6627;50.920;12.050;2022-07-17T13:28:56;2.43;;;1.30;;
13122;SDS011;6627;50.920;12.050;2022-07-17T13:31:23;1.63;;;1.33;;
13122;SDS011;6627;50.920;12.050;2022-07-17T13:33:51;2.47;;;1.23;;
13122;SDS011;6627;50.920;12.050;2022-07-17T13:36:18;5.03;;;1.70;;
13122;SDS011;6627;50.920;12.050;2022-07-17T13:38:45;2.97;;;1.40;;
13122;SDS011;6627;50.920;12.050;2022-07-17T13:41:13;4.87;;;1.40;;
13122;SDS011;6627;50.920;12.050;2022-07-17T13:43:40;4.03;;;1.37;;
13122;SDS011;6627;50.920;12.050;2022-07-17T13:46:07;2.20;;;1.17;;
13122;SDS011;6627;50.920;12.050;2022-07-17T13:48:35;3.70;;;1.37;;
13122;SDS011;6627;50.920;12.050;2022-07-17T13:51:03;5.40;;;1.37;;
13122;SDS011;6627;50.920;12.050;2022-07-17T13:53:31;4.03;;;1.30;;
13122;SDS011;6627;50.920;12.050;2022-07-17T13:55:58;2.73;;;1.40;;
13122;SDS011;6627;50.920;12.050;2022-07-17T13:58:25;7.40;;;1.40;;
13122;SDS011;6627;50.920;12.050;2022-07-17T14:00:52;3.10;;;1.30;;
13122;SDS011;6627;50.920;12.050;2022-07-17T14:03:20;2.57;;;1.33;;
13122;SDS011;6627;50.920;12.050;2022-07-17T14:05:48;2.77;;;1.33;;
13122;SDS011;6627;50.920;12.050;2022-07-17T14:08:16;2.60;;;1.20;;
13122;SDS011;6627;50.920;12.050;2022-07-17T14:10:44;4.30;;;1.30;;
13122;SDS011;6627;50.920;12.050;2022-07-17T14:13:11;4.27;;;1.40;;
13122;SDS011;6627;50.920;12.050;2022-07-17T14:15:38;2.33;;;1.40;;
13122;SDS011;6627;50.920;12.050;2022-07-17T14:18:05;2.03;;;1.20;;
13122;SDS011;6627;50.920;12.050;2022-07-17T14:20:32;1.90;;;1.37;;
13122;SDS011;6627;50.920;12.050;2022-07-17T14:23:00;3.40;;;1.40;;
13122;SDS011;6627;50.920;12.050;2022-07-17T14:25:28;3.07;;;1.30;;
13122;SDS011;6627;50.920;12.050;2022-07-17T14:27:55;2.57;;;1.17;;
13122;SDS011;6627;50.920;12.050;2022-07-17T14:30:23;3.13;;;1.23;;
13122;SDS011;6627;50.920;12.050;2022-07-17T14:32:52;2.17;;;1.10;;
13122;SDS011;6627;50.920;12.050;2022-07-17T14:35:20;1.97;;;1.20;;
13122;SDS011;6627;50.920;12.050;2022-07-17T14:37:48;3.53;;;1.40;;
13122;SDS011;6627;50.920;12.050;2022-07-17T14:40:15;6.83;;;1.30;;
13122;SDS011;6627;50.920;12.050;2022-07-17T14:42:44;2.70;;;1.30;;
13122;SDS011;6627;50.920;12.050;2022-07-17T14:45:11;2.97;;;1.20;;
13122;SDS011;6627;50.920;12.050;2022-07-17T14:47:39;2.20;;;1.20;;
13122;SDS011;6627;50.920;12.050;2022-07-17T14:50:06;2.93;;;1.10;;
13122;SDS011;6627;50.920;12.050;2022-07-17T14:52:35;4.27;;;1.23;;
13122;SDS011;6627;50.920;12.050;2022-07-17T14:55:03;1.77;;;1.00;;